createdAt,value
2022-11-21T00:01:23.308Z,2.64
2022-11-21T00:03:50.661Z,2.68
2022-11-21T00:06:19.300Z,2.79
2022-11-21T00:08:47.427Z,2.80
2022-11-21T00:11:15.103Z,2.69
2022-11-21T00:13:42.911Z,2.69
2022-11-21T00:16:14.956Z,2.60
2022-11-21T00:18:42.323Z,2.64
2022-11-21T00:21:15.749Z,2.37
2022-11-21T00:23:48.047Z,2.18
2022-11-21T00:26:17.335Z,2.10
2022-11-21T00:28:45.177Z,2.07
2022-11-21T00:31:23.575Z,1.95
2022-11-21T00:33:50.887Z,1.91
2022-11-21T00:36:18.110Z,1.84
2022-11-21T00:38:45.285Z,1.81
2022-11-21T00:41:12.544Z,1.78
2022-11-21T00:43:39.736Z,1.72
2022-11-21T00:46:06.836Z,1.64
2022-11-21T00:48:34.067Z,1.51
2022-11-21T00:51:01.450Z,1.52
2022-11-21T00:53:29.648Z,1.53
2022-11-21T00:55:57.555Z,1.53
2022-11-21T00:58:24.823Z,1.54
2022-11-21T01:00:52.401Z,1.46
2022-11-21T01:03:19.842Z,1.42
2022-11-21T01:05:47.036Z,1.46
2022-11-21T01:08:14.169Z,1.38
2022-11-21T01:10:41.453Z,1.40
2022-11-21T01:13:08.596Z,1.36
2022-11-21T01:15:35.732Z,1.35
2022-11-21T01:18:03.052Z,1.55
2022-11-21T01:20:30.150Z,1.67
2022-11-21T01:22:57.285Z,1.71
2022-11-21T01:25:24.522Z,1.67
2022-11-21T01:27:51.689Z,1.66
2022-11-21T01:30:18.896Z,1.55
2022-11-21T01:32:50.003Z,1.51
2022-11-21T01:35:18.364Z,1.47
2022-11-21T01:37:50.115Z,1.58
2022-11-21T01:40:17.548Z,1.41
2022-11-21T01:43:12.212Z,1.28
2022-11-21T01:46:11.078Z,1.27
2022-11-21T01:49:08.287Z,1.25
2022-11-21T01:52:04.809Z,1.02
2022-11-21T01:54:44.221Z,0.95
2022-11-21T01:57:52.618Z,0.89
2022-11-21T02:00:27.087Z,0.90
2022-11-21T02:03:00.738Z,0.97
2022-11-21T02:05:35.572Z,0.99
2022-11-21T02:08:19.993Z,0.99
2022-11-21T02:11:18.745Z,1.06
2022-11-21T02:13:45.951Z,1.03
2022-11-21T02:16:13.296Z,1.17
2022-11-21T02:18:40.574Z,1.10
2022-11-21T02:21:48.956Z,1.24
2022-11-21T02:25:13.123Z,1.27
2022-11-21T02:27:40.568Z,1.45
2022-11-21T02:30:10.990Z,1.42
2022-11-21T02:32:47.082Z,1.22
2022-11-21T02:35:18.586Z,1.12
2022-11-21T02:37:54.730Z,1.01
2022-11-21T02:40:31.931Z,0.95
2022-11-21T02:43:16.503Z,0.87
2022-11-21T02:45:46.473Z,0.79
2022-11-21T02:48:14.896Z,0.72
2022-11-21T02:50:46.154Z,0.77
2022-11-21T02:53:18.649Z,0.77
2022-11-21T02:55:46.714Z,0.70
2022-11-21T02:58:14.383Z,0.67
2022-11-21T03:00:43.455Z,0.80
2022-11-21T03:03:11.210Z,0.81
2022-11-21T03:05:40.051Z,1.08
2022-11-21T03:08:07.916Z,1.05
2022-11-21T03:10:35.080Z,0.74
2022-11-21T03:13:02.361Z,0.63
2022-11-21T03:15:33.433Z,0.65
2022-11-21T03:18:02.929Z,0.65
2022-11-21T03:20:34.827Z,0.77
2022-11-21T03:23:02.822Z,0.90
2022-11-21T03:25:29.931Z,0.83
2022-11-21T03:27:57.101Z,1.09
2022-11-21T03:30:27.113Z,1.25
2022-11-21T03:32:58.488Z,0.98
2022-11-21T03:35:25.802Z,0.87
2022-11-21T03:37:53.048Z,1.03
2022-11-21T03:40:20.316Z,1.08
2022-11-21T03:42:47.504Z,1.14
2022-11-21T03:45:14.829Z,1.10
2022-11-21T03:47:42.073Z,0.89
2022-11-21T03:50:10.647Z,0.81
2022-11-21T03:52:37.850Z,0.64
2022-11-21T03:55:05.767Z,0.56
2022-11-21T03:57:33.022Z,0.49
2022-11-21T04:00:00.205Z,0.58
2022-11-21T04:02:27.340Z,0.51
2022-11-21T04:04:54.493Z,0.71
2022-11-21T04:07:21.740Z,0.83
2022-11-21T04:09:48.911Z,0.76
2022-11-21T04:12:16.056Z,0.58
2022-11-21T04:14:43.191Z,0.63
2022-11-21T04:17:10.369Z,0.56
2022-11-21T04:19:37.505Z,0.54
2022-11-21T04:22:04.748Z,0.41
2022-11-21T04:24:31.911Z,0.33
2022-11-21T04:26:59.025Z,0.44
2022-11-21T04:29:26.207Z,0.51
2022-11-21T04:31:53.320Z,0.35
2022-11-21T04:34:20.491Z,0.33
2022-11-21T04:36:47.676Z,0.25
2022-11-21T04:39:14.896Z,0.18
2022-11-21T04:41:42.193Z,0.30
2022-11-21T04:44:09.429Z,0.64
2022-11-21T04:46:36.560Z,0.66
2022-11-21T04:49:03.810Z,0.55
2022-11-21T04:51:30.967Z,0.47
2022-11-21T04:53:58.127Z,0.58
2022-11-21T04:56:25.296Z,0.54
2022-11-21T04:58:54.132Z,0.42
2022-11-21T05:01:21.398Z,0.28
2022-11-21T05:03:48.695Z,0.06
2022-11-21T05:06:15.948Z,-0.01
2022-11-21T05:08:45.610Z,0.02
2022-11-21T05:11:33.493Z,-0.03
2022-11-21T05:14:00.651Z,0.10
2022-11-21T05:16:27.936Z,0.11
2022-11-21T05:18:55.174Z,0.02
2022-11-21T05:21:22.390Z,-0.08
2022-11-21T05:23:49.622Z,-0.03
2022-11-21T05:26:16.754Z,0.01
2022-11-21T05:28:44.023Z,-0.03
2022-11-21T05:31:11.188Z,-0.07
2022-11-21T05:33:38.303Z,-0.14
2022-11-21T05:36:05.675Z,-0.21
2022-11-21T05:38:32.849Z,-0.32
2022-11-21T05:40:59.964Z,-0.27
2022-11-21T05:43:45.569Z,-0.28
2022-11-21T05:46:16.349Z,-0.34
2022-11-21T05:48:43.779Z,-0.42
2022-11-21T05:51:11.615Z,-0.32
2022-11-21T05:53:38.999Z,-0.17
2022-11-21T05:56:11.052Z,-0.12
2022-11-21T05:58:38.715Z,-0.06
2022-11-21T06:01:08.464Z,-0.03
2022-11-21T06:03:40.848Z,-0.12
2022-11-21T06:06:13.019Z,-0.03
2022-11-21T06:08:45.670Z,0.04
2022-11-21T06:11:17.129Z,0.04
2022-11-21T06:13:44.660Z,0.06
2022-11-21T06:16:19.549Z,0.12
2022-11-21T06:18:57.909Z,0.33
2022-11-21T06:21:28.696Z,0.42
2022-11-21T06:23:58.413Z,0.37
2022-11-21T06:26:28.154Z,0.58
2022-11-21T06:28:55.768Z,0.60
2022-11-21T06:31:26.439Z,0.60
2022-11-21T06:33:57.607Z,0.51
2022-11-21T06:36:27.113Z,0.49
2022-11-21T06:38:56.471Z,0.55
2022-11-21T06:41:30.115Z,0.42
2022-11-21T06:44:01.999Z,0.20
2022-11-21T06:46:29.572Z,0.17
2022-11-21T06:48:56.746Z,0.18
2022-11-21T06:51:26.015Z,0.27
2022-11-21T06:53:59.324Z,0.21
2022-11-21T06:56:31.893Z,0.51
2022-11-21T06:58:59.380Z,0.55
2022-11-21T07:01:26.770Z,0.54
2022-11-21T07:03:54.792Z,0.45
2022-11-21T07:06:23.041Z,0.43
2022-11-21T07:11:44.143Z,0.60
2022-11-21T07:14:14.454Z,0.66
2022-11-21T07:16:41.700Z,0.66
2022-11-21T07:19:09.011Z,0.71
2022-11-21T07:21:36.220Z,0.83
2022-11-21T07:24:03.945Z,0.90
2022-11-21T07:26:32.273Z,0.97
2022-11-21T07:28:59.410Z,0.97
2022-11-21T07:31:26.883Z,1.10
2022-11-21T07:33:54.084Z,1.27
2022-11-21T07:36:21.370Z,1.42
2022-11-21T07:38:48.595Z,1.55
2022-11-21T07:41:15.846Z,1.64
2022-11-21T07:43:43.144Z,1.67
2022-11-21T07:46:10.681Z,1.76
2022-11-21T07:48:37.845Z,1.85
2022-11-21T07:51:05.947Z,1.96
2022-11-21T07:53:33.301Z,2.06
2022-11-21T07:56:00.760Z,2.14
2022-11-21T07:58:28.190Z,2.21
2022-11-21T08:00:55.463Z,2.29
2022-11-21T08:03:23.432Z,2.39
2022-11-21T08:05:50.672Z,2.71
2022-11-21T08:08:18.012Z,2.89
2022-11-21T08:10:46.917Z,2.94
2022-11-21T08:13:15.077Z,3.03
2022-11-21T08:15:42.492Z,3.10
2022-11-21T08:18:23.234Z,3.14
2022-11-21T08:20:50.548Z,3.17
2022-11-21T08:23:17.683Z,3.24
2022-11-21T08:25:45.201Z,3.33
2022-11-21T08:28:12.751Z,3.45
2022-11-21T08:30:40.676Z,3.57
2022-11-21T08:33:08.429Z,3.65
2022-11-21T08:35:39.136Z,3.73
2022-11-21T08:38:06.760Z,3.79
2022-11-21T08:40:35.559Z,3.92
2022-11-21T08:43:07.379Z,4.08
2022-11-21T08:45:37.409Z,4.27
2022-11-21T08:48:11.279Z,4.41
2022-11-21T08:50:38.818Z,4.55
2022-11-21T08:53:06.040Z,4.68
2022-11-21T08:55:33.259Z,4.77
2022-11-21T08:58:00.693Z,4.88
2022-11-21T09:00:27.956Z,4.98
2022-11-21T09:02:55.182Z,4.96
2022-11-21T09:05:22.544Z,5.06
2022-11-21T09:07:57.611Z,5.19
2022-11-21T09:10:26.938Z,5.31
2022-11-21T09:12:54.595Z,5.55
2022-11-21T09:15:40.484Z,5.68
2022-11-21T09:18:08.293Z,5.73
2022-11-21T09:20:43.289Z,5.78
2022-11-21T09:23:15.861Z,5.84
2022-11-21T09:25:44.502Z,5.92
2022-11-21T09:28:13.871Z,6.06
2022-11-21T09:30:42.940Z,6.26
2022-11-21T09:33:17.098Z,6.31
2022-11-21T09:35:44.480Z,6.33
2022-11-21T09:38:11.640Z,6.42
2022-11-21T09:40:44.465Z,6.70
2022-11-21T09:43:42.680Z,6.89
2022-11-21T09:46:14.077Z,6.91
2022-11-21T09:49:00.774Z,7.11
2022-11-21T09:51:31.385Z,7.28
2022-11-21T09:54:09.890Z,7.15
2022-11-21T09:56:41.651Z,7.22
2022-11-21T09:59:38.825Z,7.23
2022-11-21T10:02:20.716Z,7.28
2022-11-21T10:04:49.495Z,7.42
2022-11-21T10:07:26.847Z,7.55
2022-11-21T10:10:38.439Z,7.67
2022-11-21T10:13:37.972Z,7.82
2022-11-21T10:16:41.813Z,8.05
2022-11-21T10:19:53.767Z,8.11
2022-11-21T10:23:10.077Z,8.90
2022-11-21T10:25:39.059Z,9.17
2022-11-21T10:28:28.012Z,9.33
2022-11-21T10:30:58.276Z,9.05
2022-11-21T10:33:33.998Z,8.91
2022-11-21T10:36:20.747Z,9.05
2022-11-21T10:38:50.220Z,9.12
2022-11-21T10:41:24.820Z,9.34
2022-11-21T10:44:44.859Z,9.38
2022-11-21T10:47:30.923Z,9.38
2022-11-21T10:50:08.962Z,9.31
2022-11-21T10:53:23.310Z,9.47
2022-11-21T10:56:06.071Z,9.51
2022-11-21T10:58:56.119Z,9.65
2022-11-21T11:01:35.016Z,9.72
2022-11-21T11:04:27.128Z,9.87
2022-11-21T11:06:56.260Z,9.95
2022-11-21T11:09:35.834Z,9.98
2022-11-21T11:12:49.944Z,10.04
2022-11-21T11:15:23.102Z,9.98
2022-11-21T11:18:09.166Z,9.91
2022-11-21T11:20:45.185Z,9.85
2022-11-21T11:23:22.409Z,9.98
2022-11-21T11:25:57.741Z,10.10
2022-11-21T11:28:36.927Z,10.15
2022-11-21T11:31:04.241Z,10.10
2022-11-21T11:33:56.769Z,10.13
2022-11-21T11:36:31.478Z,10.21
2022-11-21T11:39:00.989Z,10.24
2022-11-21T11:42:49.328Z,10.31
2022-11-21T11:46:19.934Z,10.31
2022-11-21T11:49:17.130Z,10.43
2022-11-21T11:51:55.063Z,10.56
2022-11-21T11:54:48.970Z,10.61
2022-11-21T11:57:17.703Z,10.62
2022-11-21T11:59:57.772Z,10.63
2022-11-21T12:02:45.420Z,10.67
2022-11-21T12:05:25.385Z,10.74
2022-11-21T12:11:49.083Z,10.94
2022-11-21T12:15:06.116Z,11.07
2022-11-21T12:18:00.971Z,11.17
2022-11-21T12:20:42.866Z,11.13
2022-11-21T12:23:11.871Z,10.99
2022-11-21T12:26:03.316Z,10.95
2022-11-21T12:29:23.282Z,11.03
2022-11-21T12:32:32.851Z,11.04
2022-11-21T12:35:45.359Z,11.04
2022-11-21T12:39:02.605Z,10.98
2022-11-21T12:42:07.318Z,10.99
2022-11-21T12:45:21.013Z,11.07
2022-11-21T12:48:35.069Z,11.14
2022-11-21T12:52:27.202Z,11.28
2022-11-21T12:55:37.742Z,11.42
2022-11-21T12:58:39.909Z,11.55
2022-11-21T13:01:51.027Z,11.53
2022-11-21T13:04:28.106Z,11.53
2022-11-21T13:06:57.674Z,11.47
2022-11-21T13:09:27.794Z,11.47
2022-11-21T13:12:07.884Z,11.56
2022-11-21T13:14:48.751Z,11.53
2022-11-21T13:17:26.298Z,11.55
2022-11-21T13:20:14.419Z,11.55
2022-11-21T13:22:41.536Z,11.44
2022-11-21T13:25:30.167Z,11.40
2022-11-21T13:28:17.436Z,11.29
2022-11-21T13:30:56.649Z,11.29
2022-11-21T13:33:36.096Z,11.24
2022-11-21T13:36:10.047Z,11.30
2022-11-21T13:38:55.156Z,11.27
2022-11-21T13:41:52.823Z,11.29
2022-11-21T13:44:32.110Z,11.29
2022-11-21T13:47:25.956Z,11.34
2022-11-21T13:50:31.319Z,11.31
2022-11-21T13:53:33.309Z,11.28
2022-11-21T13:56:54.153Z,11.22
2022-11-21T14:00:20.069Z,11.24
2022-11-21T14:03:00.074Z,11.27
2022-11-21T14:05:46.125Z,11.29
2022-11-21T14:08:22.514Z,11.34
2022-11-21T14:10:53.454Z,11.29
2022-11-21T14:13:35.775Z,11.21
2022-11-21T14:16:36.864Z,11.08
2022-11-21T14:19:05.468Z,10.94
2022-11-21T14:21:34.010Z,10.97
2022-11-21T14:24:17.625Z,10.94
2022-11-21T14:26:49.975Z,10.89
2022-11-21T14:29:40.441Z,10.83
2022-11-21T14:32:15.050Z,10.79
2022-11-21T14:34:42.183Z,10.72
2022-11-21T14:37:12.958Z,10.57
2022-11-21T14:39:44.826Z,10.43
2022-11-21T14:42:16.578Z,10.27
2022-11-21T14:44:44.393Z,10.18
2022-11-21T14:47:26.193Z,9.98
2022-11-21T14:49:58.705Z,9.80
2022-11-21T14:52:33.068Z,9.69
2022-11-21T14:57:53.728Z,9.59
2022-11-21T15:00:57.386Z,9.48
2022-11-21T15:03:24.262Z,9.36
2022-11-21T15:06:07.306Z,9.30
2022-11-21T15:11:38.313Z,9.19
2022-11-21T15:14:35.708Z,9.08
2022-11-21T15:17:11.411Z,8.86
2022-11-21T15:19:38.428Z,8.78
2022-11-21T15:22:05.615Z,8.66
2022-11-21T15:24:43.837Z,8.54
2022-11-21T15:27:32.418Z,8.55
2022-11-21T15:30:10.281Z,8.49
2022-11-21T15:33:17.525Z,8.38
2022-11-21T15:35:54.195Z,8.24
2022-11-21T15:38:56.998Z,8.20
2022-11-21T15:41:38.655Z,8.11
2022-11-21T15:44:05.740Z,8.08
2022-11-21T15:46:42.350Z,8.09
2022-11-21T15:49:32.025Z,8.07
2022-11-21T15:52:06.961Z,7.94
2022-11-21T15:54:34.815Z,7.88
2022-11-21T15:57:02.303Z,7.90
2022-11-21T15:59:29.662Z,7.88
2022-11-21T16:01:56.973Z,7.84
2022-11-21T16:04:25.972Z,7.80
2022-11-21T16:06:55.182Z,7.74
2022-11-21T16:09:22.508Z,7.73
2022-11-21T16:11:50.179Z,7.71
2022-11-21T16:14:20.403Z,7.70
2022-11-21T16:16:47.857Z,7.63
2022-11-21T16:19:15.942Z,7.62
2022-11-21T16:21:43.404Z,7.61
2022-11-21T16:24:10.661Z,7.64
2022-11-21T16:26:37.978Z,7.58
2022-11-21T16:29:05.681Z,7.58
2022-11-21T16:31:33.745Z,7.63
2022-11-21T16:34:01.191Z,7.60
2022-11-21T16:36:30.870Z,7.59
2022-11-21T16:39:05.242Z,7.57
2022-11-21T16:41:35.298Z,7.65
2022-11-21T16:44:02.491Z,7.64
2022-11-21T16:46:29.745Z,7.55
2022-11-21T16:49:03.099Z,7.49
2022-11-21T16:51:31.002Z,7.38
2022-11-21T16:54:02.890Z,7.36
2022-11-21T16:56:33.092Z,7.35
2022-11-21T16:59:00.207Z,7.38
2022-11-21T17:01:28.438Z,7.35
2022-11-21T17:03:55.764Z,7.35
2022-11-21T17:06:28.106Z,7.37
2022-11-21T17:08:55.550Z,7.44
2022-11-21T17:11:28.295Z,7.43
2022-11-21T17:14:00.175Z,7.45
2022-11-21T17:16:27.727Z,7.46
2022-11-21T17:18:57.990Z,7.41
2022-11-21T17:21:26.853Z,7.36
2022-11-21T17:23:55.042Z,7.36
2022-11-21T17:26:28.535Z,7.35
2022-11-21T17:29:00.126Z,7.34
2022-11-21T17:31:28.071Z,7.34
2022-11-21T17:34:00.873Z,7.31
2022-11-21T17:36:30.470Z,7.27
2022-11-21T17:38:57.792Z,7.22
2022-11-21T17:41:26.471Z,7.18
2022-11-21T17:43:58.211Z,7.16
2022-11-21T17:46:26.541Z,7.14
2022-11-21T17:48:58.360Z,7.10
2022-11-21T17:51:34.235Z,7.11
2022-11-21T17:54:02.122Z,7.08
2022-11-21T17:56:33.431Z,7.09
2022-11-21T17:59:01.495Z,7.08
2022-11-21T18:01:29.404Z,7.06
2022-11-21T18:04:04.099Z,7.05
2022-11-21T18:06:39.928Z,7.09
2022-11-21T18:09:09.662Z,7.10
2022-11-21T18:11:40.302Z,7.04
2022-11-21T18:14:10.919Z,6.99
2022-11-21T18:16:39.609Z,6.94
2022-11-21T18:19:12.860Z,6.91
2022-11-21T18:21:40.107Z,6.92
2022-11-21T18:24:08.469Z,6.90
2022-11-21T18:26:39.815Z,6.93
2022-11-21T18:31:57.098Z,6.94
2022-11-21T18:34:24.345Z,6.92
2022-11-21T18:36:51.478Z,6.89
2022-11-21T18:39:18.656Z,6.85
2022-11-21T18:41:47.172Z,6.83
2022-11-21T18:44:21.492Z,6.79
2022-11-21T18:46:49.727Z,6.79
2022-11-21T18:49:16.845Z,6.79
2022-11-21T18:51:44.120Z,6.77
2022-11-21T18:54:11.639Z,6.76
2022-11-21T18:56:40.033Z,6.76
2022-11-21T18:59:07.642Z,6.76
2022-11-21T19:01:37.373Z,6.76
2022-11-21T19:04:04.849Z,6.77
2022-11-21T19:06:32.663Z,6.76
2022-11-21T19:09:00.025Z,6.72
2022-11-21T19:11:29.781Z,6.68
2022-11-21T19:13:59.320Z,6.66
2022-11-21T19:16:30.908Z,6.65
2022-11-21T19:21:47.010Z,6.60
2022-11-21T19:24:19.266Z,6.56
2022-11-21T19:26:50.117Z,6.55
2022-11-21T19:29:18.532Z,6.55
2022-11-21T19:31:46.257Z,6.53
2022-11-21T19:34:15.023Z,6.51
2022-11-21T19:36:42.837Z,6.50
2022-11-21T19:39:10.310Z,6.47
2022-11-21T19:41:37.947Z,6.47
2022-11-21T19:44:05.287Z,6.45
2022-11-21T19:46:37.004Z,6.49
2022-11-21T19:49:06.494Z,6.52
2022-11-21T19:51:39.264Z,6.52
2022-11-21T19:54:08.987Z,6.54
2022-11-21T19:56:37.075Z,6.53
2022-11-21T19:59:05.490Z,6.49
2022-11-21T20:01:34.927Z,6.47
2022-11-21T20:04:05.595Z,6.46
2022-11-21T20:06:45.800Z,6.45
2022-11-21T20:09:17.390Z,6.42
2022-11-21T20:11:48.572Z,6.41
2022-11-21T20:14:21.399Z,6.41
2022-11-21T20:16:51.148Z,6.45
2022-11-21T20:19:22.661Z,6.45
2022-11-21T20:21:50.423Z,6.43
2022-11-21T20:24:18.053Z,6.45
2022-11-21T20:26:45.408Z,6.45
2022-11-21T20:29:14.070Z,6.44
2022-11-21T20:31:41.686Z,6.47
2022-11-21T20:34:13.656Z,6.46
2022-11-21T20:36:41.834Z,6.47
2022-11-21T20:39:17.393Z,6.48
2022-11-21T20:41:47.987Z,6.46
2022-11-21T20:45:29.921Z,6.47
2022-11-21T20:47:08.329Z,6.44
2022-11-21T20:49:35.601Z,6.45
2022-11-21T20:53:43.898Z,6.43
2022-11-21T20:54:50.087Z,6.41
2022-11-21T20:57:17.396Z,6.39
2022-11-21T20:59:44.589Z,6.38
2022-11-21T21:02:13.610Z,6.37
2022-11-21T21:04:40.850Z,6.35
2022-11-21T21:07:08.187Z,6.34
2022-11-21T21:09:35.424Z,6.32
2022-11-21T21:12:02.621Z,6.27
2022-11-21T21:14:29.892Z,6.22
2022-11-21T21:16:57.172Z,6.21
2022-11-21T21:19:24.338Z,6.21
2022-11-21T21:21:51.487Z,6.18
2022-11-21T21:24:18.839Z,6.20
2022-11-21T21:26:49.247Z,6.15
2022-11-21T21:29:20.781Z,6.16
2022-11-21T21:31:52.890Z,6.13
2022-11-21T21:34:22.352Z,6.13
2022-11-21T21:36:51.086Z,6.10
2022-11-21T21:39:18.556Z,6.08
2022-11-21T21:41:47.032Z,6.08
2022-11-21T21:44:16.107Z,6.09
2022-11-21T21:46:43.836Z,6.08
2022-11-21T21:49:11.502Z,6.08
2022-11-21T21:51:39.847Z,6.06
2022-11-21T21:54:07.367Z,6.05
2022-11-21T21:56:34.569Z,6.07
2022-11-21T21:59:01.969Z,6.06
2022-11-21T22:01:32.334Z,6.06
2022-11-21T22:04:03.471Z,6.07
2022-11-21T22:06:34.253Z,6.06
2022-11-21T22:09:02.501Z,6.08
2022-11-21T22:11:33.234Z,6.09
2022-11-21T22:14:05.720Z,6.08
2022-11-21T22:16:33.429Z,6.10
2022-11-21T22:19:00.707Z,6.08
2022-11-21T22:21:32.739Z,6.10
2022-11-21T22:26:51.644Z,6.06
2022-11-21T22:29:18.836Z,6.07
2022-11-21T22:31:46.030Z,6.10
2022-11-21T22:34:14.115Z,6.08
2022-11-21T22:36:41.882Z,6.09
2022-11-21T22:39:09.343Z,6.13
2022-11-21T22:41:36.602Z,6.14
2022-11-21T22:44:03.984Z,6.17
2022-11-21T22:46:32.344Z,6.14
2022-11-21T22:48:59.736Z,6.15
2022-11-21T22:51:29.373Z,6.17
2022-11-21T22:53:57.402Z,6.17
2022-11-21T22:56:25.733Z,6.17
2022-11-21T22:58:53.467Z,6.18
2022-11-21T23:01:24.637Z,6.19
2022-11-21T23:03:53.094Z,6.19
2022-11-21T23:06:24.161Z,6.24
2022-11-21T23:08:54.140Z,6.26
2022-11-21T23:11:29.515Z,6.27
2022-11-21T23:13:57.551Z,6.23
2022-11-21T23:16:26.049Z,6.22
2022-11-21T23:18:55.327Z,6.24
2022-11-21T23:21:23.194Z,6.21
2022-11-21T23:23:50.399Z,6.21
2022-11-21T23:26:17.824Z,6.18
2022-11-21T23:28:45.012Z,6.17
2022-11-21T23:31:13.435Z,6.25
2022-11-21T23:33:40.753Z,6.18
2022-11-21T23:36:08.221Z,6.18
2022-11-21T23:38:35.410Z,6.21
2022-11-21T23:41:02.606Z,6.12
2022-11-21T23:43:29.899Z,6.06
2022-11-21T23:45:57.282Z,6.02
2022-11-21T23:48:24.547Z,6.02
2022-11-21T23:50:52.501Z,6.01
2022-11-21T23:53:22.500Z,5.98
2022-11-21T23:55:50.130Z,6.00
2022-11-21T23:58:17.585Z,6.04
